createdAt,value
2019-01-24T00:01:20.618Z,75.27
2019-01-24T00:04:24.841Z,75.49
2019-01-24T00:07:25.786Z,74.99
2019-01-24T00:10:26.728Z,75.33
2019-01-24T00:13:27.956Z,74.54
2019-01-24T00:16:28.903Z,74.92
2019-01-24T00:19:29.982Z,73.98
2019-01-24T00:22:30.978Z,73.76
2019-01-24T00:25:31.925Z,74.00
2019-01-24T00:28:32.850Z,74.67
2019-01-24T00:31:33.804Z,75.41
2019-01-24T00:34:35.949Z,75.00
2019-01-24T00:37:36.864Z,72.87
2019-01-24T00:40:40.039Z,72.64
2019-01-24T00:43:42.617Z,72.77
2019-01-24T00:46:43.550Z,73.77
2019-01-24T00:49:46.362Z,74.16
2019-01-24T00:52:48.826Z,73.47
2019-01-24T00:55:49.819Z,74.55
2019-01-24T00:58:51.812Z,74.47
2019-01-24T01:01:52.732Z,73.77
2019-01-24T01:04:55.688Z,73.02
2019-01-24T01:07:56.617Z,73.97
2019-01-24T01:10:57.556Z,73.26
2019-01-24T01:13:58.505Z,73.14
2019-01-24T01:16:59.431Z,73.21
2019-01-24T01:20:00.357Z,72.51
2019-01-24T01:23:03.262Z,73.92
2019-01-24T01:26:04.172Z,72.49
2019-01-24T01:29:05.178Z,72.29
2019-01-24T01:32:06.097Z,72.07
2019-01-24T01:35:07.270Z,73.16
2019-01-24T01:38:08.191Z,70.30
2019-01-24T01:41:09.175Z,71.81
2019-01-24T01:44:10.145Z,71.66
2019-01-24T01:47:11.090Z,71.59
2019-01-24T01:50:14.613Z,70.23
2019-01-24T01:53:15.721Z,71.28
2019-01-24T01:56:16.671Z,72.38
2019-01-24T01:59:20.010Z,70.99
2019-01-24T02:02:21.102Z,72.23
2019-01-24T02:05:22.303Z,72.12
2019-01-24T02:08:26.187Z,72.20
2019-01-24T02:11:29.983Z,72.27
2019-01-24T02:14:31.282Z,71.72
2019-01-24T02:17:32.191Z,71.88
2019-01-24T02:20:33.117Z,71.91
2019-01-24T02:23:34.321Z,72.35
2019-01-24T02:26:39.496Z,71.48
2019-01-24T02:29:42.307Z,72.31
2019-01-24T02:32:43.243Z,71.78
2019-01-24T02:35:44.179Z,72.00
2019-01-24T02:38:45.146Z,71.66
2019-01-24T02:41:54.580Z,72.13
2019-01-24T02:44:55.521Z,72.47
2019-01-24T02:47:56.437Z,72.40
2019-01-24T02:50:57.494Z,70.02
2019-01-24T02:53:58.487Z,70.89
2019-01-24T02:56:59.527Z,71.79
2019-01-24T03:00:00.444Z,71.36
2019-01-24T03:03:01.702Z,72.12
2019-01-24T03:06:02.616Z,71.56
2019-01-24T03:09:04.863Z,69.45
2019-01-24T03:12:05.887Z,70.83
2019-01-24T03:15:09.938Z,71.67
2019-01-24T03:18:10.883Z,70.73
2019-01-24T03:21:11.800Z,70.57
2019-01-24T03:24:12.850Z,70.28
2019-01-24T03:27:17.655Z,71.82
2019-01-24T03:30:20.414Z,73.23
2019-01-24T03:33:21.606Z,72.25
2019-01-24T03:36:22.537Z,71.93
2019-01-24T03:39:23.451Z,71.63
2019-01-24T03:42:26.625Z,71.29
2019-01-24T03:45:27.528Z,71.97
2019-01-24T03:48:28.483Z,71.43
2019-01-24T03:51:29.419Z,71.60
2019-01-24T03:54:33.136Z,73.07
2019-01-24T03:57:34.031Z,70.79
2019-01-24T04:00:34.970Z,71.09
2019-01-24T04:03:38.351Z,71.09
2019-01-24T04:06:41.504Z,71.53
2019-01-24T04:09:42.429Z,71.89
2019-01-24T04:12:43.601Z,72.42
2019-01-24T04:15:46.434Z,73.02
2019-01-24T04:18:47.362Z,72.98
2019-01-24T04:21:48.281Z,71.82
2019-01-24T04:24:50.749Z,73.03
2019-01-24T04:27:51.665Z,72.93
2019-01-24T04:30:52.602Z,72.67
2019-01-24T04:33:53.637Z,72.92
2019-01-24T04:36:54.563Z,74.33
2019-01-24T04:39:55.501Z,72.79
2019-01-24T04:42:57.918Z,73.57
2019-01-24T04:45:58.863Z,74.08
2019-01-24T04:48:59.804Z,74.10
2019-01-24T04:52:00.760Z,73.05
2019-01-24T04:55:04.109Z,72.72
2019-01-24T04:58:05.067Z,72.31
2019-01-24T05:01:05.966Z,74.16
2019-01-24T05:04:07.042Z,72.78
2019-01-24T05:07:07.987Z,72.76
2019-01-24T05:10:08.927Z,73.11
2019-01-24T05:13:10.105Z,72.95
2019-01-24T05:16:11.150Z,71.29
2019-01-24T05:19:12.095Z,71.75
2019-01-24T05:22:13.028Z,72.41
2019-01-24T05:25:15.610Z,72.81
2019-01-24T05:28:16.585Z,72.06
2019-01-24T05:31:20.169Z,71.83
2019-01-24T05:34:21.367Z,71.75
2019-01-24T05:37:24.535Z,71.49
2019-01-24T05:40:25.461Z,71.62
2019-01-24T05:43:28.500Z,71.08
2019-01-24T05:46:29.431Z,72.20
2019-01-24T05:49:30.337Z,72.39
2019-01-24T05:52:31.308Z,72.03
2019-01-24T05:55:32.324Z,71.29
2019-01-24T05:58:33.280Z,70.82
2019-01-24T06:01:35.315Z,72.28
2019-01-24T06:04:38.515Z,70.98
2019-01-24T06:07:39.427Z,71.07
2019-01-24T06:10:40.385Z,72.03
2019-01-24T06:13:41.563Z,71.55
2019-01-24T06:16:42.496Z,70.97
2019-01-24T06:19:43.417Z,73.03
2019-01-24T06:22:44.422Z,71.89
2019-01-24T06:25:48.339Z,71.21
2019-01-24T06:28:49.542Z,71.53
2019-01-24T06:31:50.464Z,70.78
2019-01-24T06:34:51.617Z,72.40
2019-01-24T06:37:57.338Z,72.32
2019-01-24T06:40:58.294Z,71.59
2019-01-24T06:44:00.290Z,71.89
2019-01-24T06:47:01.513Z,71.60
2019-01-24T06:50:05.842Z,71.32
2019-01-24T06:53:08.619Z,71.62
2019-01-24T06:56:09.557Z,71.22
2019-01-24T06:59:10.481Z,71.03
2019-01-24T07:02:11.412Z,71.55
2019-01-24T07:05:15.585Z,71.90
2019-01-24T07:08:17.627Z,71.69
2019-01-24T07:11:19.423Z,71.39
2019-01-24T07:14:22.650Z,71.77
2019-01-24T07:17:23.589Z,71.04
2019-01-24T07:20:27.726Z,71.78
2019-01-24T07:23:30.455Z,72.26
2019-01-24T07:26:32.927Z,72.32
2019-01-24T07:29:37.675Z,71.14
2019-01-24T07:32:38.654Z,71.36
2019-01-24T07:35:40.736Z,71.57
2019-01-24T07:38:41.635Z,71.07
2019-01-24T07:41:42.726Z,71.29
2019-01-24T07:44:45.545Z,71.84
2019-01-24T07:47:46.610Z,72.28
2019-01-24T07:50:47.541Z,72.25
2019-01-24T07:53:52.778Z,71.71
2019-01-24T07:56:54.716Z,71.64
2019-01-24T07:59:56.953Z,71.32
2019-01-24T08:03:00.290Z,71.22
2019-01-24T08:06:01.335Z,70.45
2019-01-24T08:09:07.116Z,71.41
2019-01-24T08:12:08.087Z,70.51
2019-01-24T08:15:11.300Z,69.70
2019-01-24T08:18:12.231Z,70.47
2019-01-24T08:21:13.186Z,70.62
2019-01-24T08:24:16.252Z,69.80
2019-01-24T08:27:17.478Z,69.42
2019-01-24T08:30:20.610Z,69.50
2019-01-24T08:33:23.692Z,69.42
2019-01-24T08:36:24.636Z,69.64
2019-01-24T08:39:25.802Z,70.03
2019-01-24T08:42:28.756Z,69.75
2019-01-24T08:45:29.829Z,68.89
2019-01-24T08:48:30.845Z,70.01
2019-01-24T08:51:31.858Z,69.67
2019-01-24T08:54:32.993Z,69.02
2019-01-24T08:57:36.491Z,68.25
2019-01-24T09:00:37.418Z,68.13
2019-01-24T09:03:38.560Z,68.15
2019-01-24T09:06:39.557Z,67.22
2019-01-24T09:09:40.480Z,67.92
2019-01-24T09:12:41.449Z,67.72
2019-01-24T09:15:42.423Z,68.20
2019-01-24T09:18:43.478Z,68.55
2019-01-24T09:21:44.439Z,68.96
2019-01-24T09:27:08.797Z,68.69
2019-01-24T09:30:16.295Z,67.67
2019-01-24T09:33:18.428Z,67.67
2019-01-24T09:36:20.422Z,68.09
2019-01-24T09:39:22.412Z,68.74
2019-01-24T09:42:24.449Z,67.89
2019-01-24T09:45:27.918Z,67.48
2019-01-24T09:48:29.936Z,67.44
2019-01-24T09:51:31.969Z,68.57
2019-01-24T09:54:34.171Z,68.55
2019-01-24T09:57:37.296Z,67.22
2019-01-24T10:00:39.286Z,67.37
2019-01-24T10:03:41.713Z,68.00
2019-01-24T10:06:43.729Z,67.84
2019-01-24T10:09:45.970Z,67.16
2019-01-24T10:12:48.257Z,66.90
2019-01-24T10:15:50.346Z,67.47
2019-01-24T10:18:52.766Z,67.49
2019-01-24T10:21:54.810Z,67.22
2019-01-24T10:24:59.294Z,66.46
2019-01-24T10:28:01.332Z,66.21
2019-01-24T10:31:03.337Z,66.23
2019-01-24T10:34:08.381Z,66.47
2019-01-24T10:37:10.387Z,65.92
2019-01-24T10:40:15.463Z,65.60
2019-01-24T10:43:17.555Z,65.85
2019-01-24T10:46:19.562Z,66.71
2019-01-24T10:49:21.550Z,65.88
2019-01-24T10:52:24.811Z,66.28
2019-01-24T10:55:31.542Z,66.19
2019-01-24T10:58:38.494Z,66.27
2019-01-24T11:01:42.999Z,65.92
2019-01-24T11:04:45.360Z,66.29
2019-01-24T11:07:47.419Z,65.91
2019-01-24T11:10:49.563Z,66.01
2019-01-24T11:13:52.871Z,65.83
2019-01-24T11:16:54.863Z,66.40
2019-01-24T11:19:56.841Z,65.79
2019-01-24T11:23:00.208Z,66.25
2019-01-24T11:26:02.303Z,64.40
2019-01-24T11:29:04.663Z,65.35
2019-01-24T11:32:07.890Z,65.16
2019-01-24T11:35:12.071Z,65.15
2019-01-24T11:38:14.072Z,65.73
2019-01-24T11:41:16.163Z,67.79
2019-01-24T11:44:18.476Z,67.85
2019-01-24T11:47:20.653Z,66.78
2019-01-24T11:50:22.659Z,67.08
2019-01-24T11:53:25.010Z,66.69
2019-01-24T11:56:27.099Z,66.62
2019-01-24T11:59:30.346Z,66.37
2019-01-24T12:02:39.646Z,66.37
2019-01-24T12:05:38.099Z,66.66
2019-01-24T12:08:40.143Z,66.38
2019-01-24T12:11:42.162Z,66.57
2019-01-24T12:14:45.531Z,66.82
2019-01-24T12:17:47.528Z,66.45
2019-01-24T12:20:49.523Z,65.52
2019-01-24T12:23:51.646Z,66.70
2019-01-24T12:26:54.856Z,65.51
2019-01-24T12:29:56.857Z,66.19
2019-01-24T12:32:59.456Z,65.76
2019-01-24T12:36:01.554Z,67.12
2019-01-24T12:39:09.298Z,66.80
2019-01-24T12:42:11.312Z,66.30
2019-01-24T12:45:22.769Z,65.44
2019-01-24T12:48:24.866Z,66.43
2019-01-24T12:51:28.102Z,65.93
2019-01-24T12:54:30.642Z,65.64
2019-01-24T12:57:32.633Z,67.73
2019-01-24T13:00:37.638Z,67.02
2019-01-24T13:03:39.833Z,68.28
2019-01-24T13:06:44.332Z,69.52
2019-01-24T13:09:46.337Z,68.96
2019-01-24T13:12:48.333Z,68.76
2019-01-24T13:15:52.088Z,68.64
2019-01-24T13:18:54.114Z,70.52
2019-01-24T13:21:56.146Z,69.68
2019-01-24T13:24:58.414Z,69.77
2019-01-24T13:28:00.540Z,70.30
2019-01-24T13:31:02.623Z,70.41
2019-01-24T13:34:06.062Z,70.50
2019-01-24T13:37:08.248Z,70.16
2019-01-24T13:40:12.356Z,70.62
2019-01-24T13:43:14.548Z,70.94
2019-01-24T13:46:19.589Z,70.26
2019-01-24T13:49:21.618Z,71.32
2019-01-24T13:52:23.624Z,70.90
2019-01-24T13:55:25.943Z,70.50
2019-01-24T13:58:27.946Z,71.30
2019-01-24T14:01:32.225Z,69.39
2019-01-24T14:04:39.014Z,68.65
2019-01-24T14:07:41.016Z,68.16
2019-01-24T14:10:44.539Z,69.40
2019-01-24T14:13:46.695Z,68.98
2019-01-24T14:16:48.736Z,69.29
2019-01-24T14:19:53.036Z,69.67
2019-01-24T14:22:58.266Z,69.65
2019-01-24T14:26:00.307Z,69.64
2019-01-24T14:29:05.381Z,68.98
2019-01-24T14:32:07.472Z,69.19
2019-01-24T14:35:11.446Z,69.88
2019-01-24T14:38:14.375Z,68.82
2019-01-24T14:41:20.887Z,69.61
2019-01-24T14:44:23.145Z,71.04
2019-01-24T14:47:25.254Z,69.40
2019-01-24T14:50:29.391Z,69.98
2019-01-24T14:53:31.480Z,70.43
2019-01-24T14:56:33.542Z,70.23
2019-01-24T14:59:35.621Z,70.66
2019-01-24T15:02:37.742Z,71.17
2019-01-24T15:05:39.747Z,71.67
2019-01-24T15:08:41.762Z,71.07
2019-01-24T15:11:43.800Z,71.29
2019-01-24T15:14:46.071Z,72.40
2019-01-24T15:17:48.067Z,72.85
2019-01-24T15:20:50.142Z,73.31
2019-01-24T15:23:52.335Z,72.80
2019-01-24T15:26:57.229Z,72.47
2019-01-24T15:29:59.252Z,72.76
2019-01-24T15:33:01.574Z,72.77
2019-01-24T15:36:03.666Z,72.33
2019-01-24T15:39:06.844Z,72.52
2019-01-24T15:42:08.894Z,72.34
2019-01-24T15:45:11.263Z,72.13
2019-01-24T15:48:13.257Z,71.70
2019-01-24T15:51:16.601Z,71.72
2019-01-24T15:54:19.182Z,71.46
2019-01-24T15:57:23.679Z,72.02
2019-01-24T16:00:27.669Z,72.39
2019-01-24T16:03:29.731Z,71.96
2019-01-24T16:06:31.764Z,72.50
2019-01-24T16:09:33.795Z,73.05
2019-01-24T16:12:35.802Z,73.13
2019-01-24T16:15:38.129Z,72.70
2019-01-24T16:18:40.191Z,73.46
2019-01-24T16:21:42.196Z,73.90
2019-01-24T16:24:44.274Z,73.38
2019-01-24T16:27:46.349Z,73.64
2019-01-24T16:30:48.460Z,73.31
2019-01-24T16:33:52.326Z,73.74
2019-01-24T16:36:57.117Z,73.34
2019-01-24T16:39:59.157Z,73.58
2019-01-24T16:43:01.313Z,73.86
2019-01-24T16:46:03.732Z,74.30
2019-01-24T16:49:05.744Z,74.49
2019-01-24T16:52:07.889Z,74.03
2019-01-24T16:55:11.355Z,73.56
2019-01-24T16:58:13.561Z,73.70
2019-01-24T17:01:18.070Z,74.45
2019-01-24T17:04:20.322Z,73.84
2019-01-24T17:07:22.348Z,74.26
2019-01-24T17:10:24.417Z,74.11
2019-01-24T17:13:27.877Z,74.26
2019-01-24T17:16:29.907Z,74.00
2019-01-24T17:19:34.376Z,74.50
2019-01-24T17:22:36.411Z,73.59
2019-01-24T17:25:38.474Z,73.73
2019-01-24T17:28:40.609Z,73.08
2019-01-24T17:31:45.340Z,73.05
2019-01-24T17:34:47.455Z,72.65
2019-01-24T17:37:52.203Z,72.90
2019-01-24T17:40:54.211Z,72.95
2019-01-24T17:43:57.714Z,73.19
2019-01-24T17:46:59.771Z,72.86
2019-01-24T17:50:01.777Z,72.97
2019-01-24T17:53:03.925Z,73.10
2019-01-24T17:56:05.972Z,73.63
2019-01-24T17:59:07.923Z,72.99
2019-01-24T18:02:10.998Z,73.07
2019-01-24T18:05:13.247Z,72.99
2019-01-24T18:08:15.490Z,72.49
2019-01-24T18:11:19.344Z,73.12
2019-01-24T18:14:21.564Z,73.24
2019-01-24T18:17:26.338Z,72.99
2019-01-24T18:20:30.195Z,73.16
2019-01-24T18:23:32.370Z,72.67
2019-01-24T18:26:34.377Z,72.09
2019-01-24T18:29:36.429Z,72.46
2019-01-24T18:32:38.544Z,72.46
2019-01-24T18:35:40.693Z,72.38
2019-01-24T18:38:42.754Z,72.98
2019-01-24T18:41:44.739Z,73.28
2019-01-24T18:44:48.179Z,73.01
2019-01-24T18:47:51.402Z,72.64
2019-01-24T18:50:53.444Z,72.24
2019-01-24T18:53:56.561Z,72.35
2019-01-24T18:56:58.580Z,72.30
2019-01-24T19:00:00.719Z,71.92
2019-01-24T19:03:03.290Z,72.54
2019-01-24T19:06:05.299Z,72.38
2019-01-24T19:09:08.048Z,72.15
2019-01-24T19:12:10.075Z,72.17
2019-01-24T19:15:14.329Z,72.97
2019-01-24T19:18:18.181Z,72.90
2019-01-24T19:21:27.370Z,73.35
2019-01-24T19:24:29.917Z,72.83
2019-01-24T19:27:36.911Z,73.76
2019-01-24T19:30:38.991Z,72.76
2019-01-24T19:33:42.735Z,73.19
2019-01-24T19:36:47.085Z,72.91
2019-01-24T19:39:49.095Z,73.39
2019-01-24T19:42:51.286Z,73.92
2019-01-24T19:45:53.265Z,73.15
2019-01-24T19:48:55.280Z,74.12
2019-01-24T19:51:57.277Z,73.74
2019-01-24T19:54:59.702Z,72.63
2019-01-24T19:58:01.693Z,72.74
2019-01-24T20:01:03.787Z,73.09
2019-01-24T20:04:06.171Z,73.15
2019-01-24T20:07:08.184Z,73.62
2019-01-24T20:10:12.419Z,73.26
2019-01-24T20:13:14.512Z,72.79
2019-01-24T20:16:20.433Z,72.38
2019-01-24T20:19:22.491Z,72.91
2019-01-24T20:22:27.457Z,72.49
2019-01-24T20:25:30.561Z,72.86
2019-01-24T20:28:32.677Z,72.26
2019-01-24T20:31:34.648Z,72.04
2019-01-24T20:34:36.759Z,72.89
2019-01-24T20:37:41.041Z,73.03
2019-01-24T20:40:45.794Z,73.64
2019-01-24T20:43:47.906Z,73.83
2019-01-24T20:46:49.931Z,72.93
2019-01-24T20:49:52.070Z,73.69
2019-01-24T20:52:57.460Z,73.29
2019-01-24T20:55:59.532Z,73.09
2019-01-24T20:59:07.715Z,73.26
2019-01-24T21:02:09.796Z,73.38
2019-01-24T21:05:12.908Z,73.18
2019-01-24T21:08:17.489Z,72.93
2019-01-24T21:11:19.511Z,73.17
2019-01-24T21:14:22.856Z,72.99
2019-01-24T21:17:24.905Z,73.36
2019-01-24T21:20:29.723Z,73.37
2019-01-24T21:23:31.800Z,74.06
2019-01-24T21:26:33.871Z,73.33
2019-01-24T21:29:35.906Z,73.22
2019-01-24T21:32:38.423Z,73.48
2019-01-24T21:35:40.455Z,73.71
2019-01-24T21:38:42.521Z,73.24
2019-01-24T21:41:44.847Z,73.46
2019-01-24T21:44:47.019Z,74.34
2019-01-24T21:47:49.130Z,73.81
2019-01-24T21:50:51.293Z,73.69
2019-01-24T21:53:54.702Z,73.34
2019-01-24T21:56:56.755Z,73.35
2019-01-24T21:59:58.777Z,73.76
2019-01-24T22:03:01.092Z,73.46
2019-01-24T22:06:03.113Z,72.94
2019-01-24T22:09:07.726Z,74.40
2019-01-24T22:12:09.829Z,74.31
2019-01-24T22:15:14.404Z,74.11
2019-01-24T22:18:16.451Z,73.47
2019-01-24T22:21:18.578Z,73.77
2019-01-24T22:24:20.956Z,74.36
2019-01-24T22:27:23.071Z,74.19
2019-01-24T22:30:34.403Z,75.03
2019-01-24T22:33:36.659Z,73.62
2019-01-24T22:36:38.701Z,72.53
2019-01-24T22:39:41.100Z,73.48
2019-01-24T22:42:43.247Z,73.88
2019-01-24T22:45:45.322Z,73.35
2019-01-24T22:48:49.974Z,74.03
2019-01-24T22:51:54.650Z,74.49
2019-01-24T22:54:56.882Z,73.23
2019-01-24T22:57:58.946Z,73.69
2019-01-24T23:01:48.811Z,74.46
2019-01-24T23:04:51.253Z,73.36
2019-01-24T23:07:53.275Z,73.73
2019-01-24T23:10:55.324Z,73.58
2019-01-24T23:13:57.537Z,73.75
2019-01-24T23:16:59.565Z,73.21
2019-01-24T23:20:01.584Z,73.97
2019-01-24T23:23:04.172Z,73.28
2019-01-24T23:26:06.188Z,73.20
2019-01-24T23:29:08.232Z,74.02
2019-01-24T23:32:10.295Z,73.65
2019-01-24T23:35:12.337Z,72.83
2019-01-24T23:38:14.376Z,72.95
2019-01-24T23:41:16.389Z,73.55
2019-01-24T23:44:20.599Z,74.24
2019-01-24T23:47:24.203Z,73.87
2019-01-24T23:50:28.828Z,72.92
2019-01-24T23:53:32.720Z,73.76
2019-01-24T23:56:39.408Z,73.25
2019-01-24T23:59:41.508Z,73.51
